sensor_id;sensor_type;location;lat;lon;timestamp;pressure;altitude;pressure_sealevel;temperature;humidity
61740;BME280;47645;45.288;12.038;2023-05-12T00:04:39;1010.6471180210949;;;13.5921875;100
61740;BME280;47645;45.288;12.038;2023-05-12T00:14:38;1010.5801469537379;;;13.6431640625;100
61740;BME280;47645;45.288;12.038;2023-05-12T00:24:39;1010.6692116552283;;;13.60234375;100
61740;BME280;47645;45.288;12.038;2023-05-12T00:34:39;1010.6904897417533;;;13.6125;100
61740;BME280;47645;45.288;12.038;2023-05-12T00:44:41;1010.6796994878955;;;13.4748046875;100
61740;BME280;47645;45.288;12.038;2023-05-12T00:54:42;1010.7443800297071;;;13.48515625;100
61740;BME280;47645;45.288;12.038;2023-05-12T01:04:42;1010.674979988329;;;13.6685546875;100
61740;BME280;47645;45.288;12.038;2023-05-12T01:14:43;1010.5641090603651;;;13.627734375;100
61740;BME280;47645;45.288;12.038;2023-05-12T01:24:49;1010.6195318895168;;;13.6328125;100
61740;BME280;47645;45.288;12.038;2023-05-12T01:34:45;1010.6075018302408;;;13.52578125;100
61740;BME280;47645;45.288;12.038;2023-05-12T01:44:46;1010.5934587392846;;;13.52578125;100
61740;BME280;47645;45.288;12.038;2023-05-12T01:54:46;1010.6669420489219;;;13.510546875;100
61740;BME280;47645;45.288;12.038;2023-05-12T02:04:47;1010.7797487006876;;;13.4697265625;100
61740;BME280;47645;45.288;12.038;2023-05-12T02:14:48;1010.799594619246;;;13.515625;100
61740;BME280;47645;45.288;12.038;2023-05-12T02:24:49;1010.8477257190946;;;13.5513671875;100
61740;BME280;47645;45.288;12.038;2023-05-12T02:34:50;1010.8379895507586;;;13.5716796875;100
61740;BME280;47645;45.288;12.038;2023-05-12T02:44:51;1010.8552755176656;;;13.597265625;100
61740;BME280;47645;45.288;12.038;2023-05-12T02:54:51;1010.9041981944578;;;13.6328125;100
61740;BME280;47645;45.288;12.038;2023-05-12T03:04:52;1010.8339656229838;;;13.597265625;100
61740;BME280;47645;45.288;12.038;2023-05-12T03:14:53;1010.928192218116;;;13.4748046875;100
61740;BME280;47645;45.288;12.038;2023-05-12T03:24:54;1010.9299474902986;;;13.4646484375;100
61740;BME280;47645;45.288;12.038;2023-05-12T03:34:55;1010.863034310801;;;13.52578125;100
61740;BME280;47645;45.288;12.038;2023-05-12T03:44:56;1010.7855071740676;;;13.480078125;100
61740;BME280;47645;45.288;12.038;2023-05-12T03:54:57;1010.6599014329787;;;13.4494140625;100
61740;BME280;47645;45.288;12.038;2023-05-12T04:04:57;1010.7311348265617;;;13.515625;100
61740;BME280;47645;45.288;12.038;2023-05-12T04:14:58;1010.8522366941193;;;13.5615234375;100
61740;BME280;47645;45.288;12.038;2023-05-12T04:24:59;1011.0446796222811;;;13.597265625;100
61740;BME280;47645;45.288;12.038;2023-05-12T04:35:00;1011.1472463329195;;;13.6482421875;100
61740;BME280;47645;45.288;12.038;2023-05-12T04:45:01;1011.3279420218291;;;13.7755859375;100
61740;BME280;47645;45.288;12.038;2023-05-12T04:55:03;1011.3891196665911;;;13.744921875;100
61740;BME280;47645;45.288;12.038;2023-05-12T05:05:03;1011.4721460074352;;;13.7603515625;100
61740;BME280;47645;45.288;12.038;2023-05-12T05:15:04;1011.5748279057656;;;13.83671875;100
61740;BME280;47645;45.288;12.038;2023-05-12T05:20:05;1011.5540334501752;;;13.8724609375;100
61740;BME280;47645;45.288;12.038;2023-05-12T05:30:06;1011.5669395553272;;;14.1732421875;100
61740;BME280;47645;45.288;12.038;2023-05-12T05:40:07;1011.6067414484799;;;14.3107421875;100
61740;BME280;47645;45.288;12.038;2023-05-12T05:50:08;1011.688168053307;;;14.3923828125;100
61740;BME280;47645;45.288;12.038;2023-05-12T06:00:10;1011.7308311901975;;;14.570703125;100
61740;BME280;47645;45.288;12.038;2023-05-12T06:10:08;1011.7992573539734;;;14.6267578125;100
61740;BME280;47645;45.288;12.038;2023-05-12T06:20:10;1011.7554629573985;;;15.085546875;100
61740;BME280;47645;45.288;12.038;2023-05-12T06:30:12;1011.8273233348876;;;15.31484375;100
61740;BME280;47645;45.288;12.038;2023-05-12T06:40:11;1011.9975094351344;;;15.4626953125;100
61740;BME280;47645;45.288;12.038;2023-05-12T06:50:12;1012.0487668771649;;;15.5544921875;100
61740;BME280;47645;45.288;12.038;2023-05-12T07:00:15;1012.117248670011;;;16.0080078125;100
61740;BME280;47645;45.288;12.038;2023-05-12T07:10:21;1012.1618243477419;;;16.594140625;100
61740;BME280;47645;45.288;12.038;2023-05-12T07:20:15;1012.2339231233501;;;16.8642578125;99.12355579315665
61740;BME280;47645;45.288;12.038;2023-05-12T07:30:16;1012.3013794777215;;;16.9611328125;98.37103174535761
61740;BME280;47645;45.288;12.038;2023-05-12T07:40:17;1012.3340915730024;;;16.884765625;97.7268267415197
61740;BME280;47645;45.288;12.038;2023-05-12T07:50:17;1012.3152403048907;;;16.991796875;98.4877882182048
61740;BME280;47645;45.288;12.038;2023-05-12T08:00:19;1012.3890507102097;;;17.2466796875;94.97718515989209
61740;BME280;47645;45.288;12.038;2023-05-12T08:10:19;1012.5411045593211;;;17.2873046875;93.73752920431598
61740;BME280;47645;45.288;12.038;2023-05-12T08:20:20;1012.5611254553596;;;17.3791015625;91.82886629727984
61740;BME280;47645;45.288;12.038;2023-05-12T08:30:21;1012.6354502725837;;;17.2466796875;91.90858617788072
61740;BME280;47645;45.288;12.038;2023-05-12T08:40:23;1012.6293296554524;;;17.2568359375;92.58278838843893
61740;BME280;47645;45.288;12.038;2023-05-12T08:50:24;1012.5814770136207;;;17.10390625;92.99016170552913
61740;BME280;47645;45.288;12.038;2023-05-12T09:00:27;1012.7269682330387;;;17.302734375;91.88218010216889
61740;BME280;47645;45.288;12.038;2023-05-12T09:10:26;1012.7882152187159;;;17.7103515625;89.69257042743645
61740;BME280;47645;45.288;12.038;2023-05-12T09:20:26;1012.8482813976218;;;17.6033203125;89.6635590143415
61740;BME280;47645;45.288;12.038;2023-05-12T09:30:29;1012.9071039549956;;;17.848046875;88.69945647715268
61740;BME280;47645;45.288;12.038;2023-05-12T09:40:28;1012.9686005445776;;;18.5107421875;85.16063424455363
61740;BME280;47645;45.288;12.038;2023-05-12T09:50:29;1012.9420186101819;;;18.87265625;83.15752457932703
61740;BME280;47645;45.288;12.038;2023-05-12T10:00:30;1012.9778445761226;;;19.2345703125;81.86089046072976
61740;BME280;47645;45.288;12.038;2023-05-12T10:10:31;1012.9218765726043;;;19.1326171875;81.47037354430915
61740;BME280;47645;45.288;12.038;2023-05-12T10:20:34;1012.8907671569204;;;19.82578125;78.11220102038423
61740;BME280;47645;45.288;12.038;2023-05-12T10:30:34;1012.8914491088757;;;20.1927734375;76.48160919401515
61740;BME280;47645;45.288;12.038;2023-05-12T10:40:34;1012.8881525958957;;;20.8146484375;75.02007623071161
61740;BME280;47645;45.288;12.038;2023-05-12T10:50:36;1012.8687955786414;;;22.134765625;64.54718386772043
61740;BME280;47645;45.288;12.038;2023-05-12T11:00:45;1012.8880745093606;;;23.378515625;64.86723038188619
61740;BME280;47645;45.288;12.038;2023-05-12T11:10:40;1012.9722920648991;;;22.8126953125;64.67689220815262
61740;BME280;47645;45.288;12.038;2023-05-12T11:20:38;1012.9495408301124;;;23.1900390625;65.58613764772139
61740;BME280;47645;45.288;12.038;2023-05-12T11:30:59;1012.9480937660084;;;23.3224609375;60.989619831297226
61740;BME280;47645;45.288;12.038;2023-05-12T11:40:41;1012.8538682754391;;;22.9962890625;67.70090809638234
61740;BME280;47645;45.288;12.038;2023-05-12T11:50:43;1012.9121688421546;;;23.96484375;64.29089212584289
61740;BME280;47645;45.288;12.038;2023-05-12T12:00:44;1012.9562934745048;;;23.4244140625;57.36675597289181
61740;BME280;47645;45.288;12.038;2023-05-12T12:10:45;1012.8730524437368;;;23.8525390625;63.13513982481096
61740;BME280;47645;45.288;12.038;2023-05-12T12:20:46;1012.8873540261063;;;22.7107421875;65.3353996427517
61740;BME280;47645;45.288;12.038;2023-05-12T12:30:47;1012.9210854669305;;;23.55703125;68.02252974687138
61740;BME280;47645;45.288;12.038;2023-05-12T12:40:54;1012.966879805211;;;23.3224609375;63.561511701752735
61740;BME280;47645;45.288;12.038;2023-05-12T12:50:49;1012.9478542870785;;;24.2501953125;55.507517599837236
61740;BME280;47645;45.288;12.038;2023-05-12T13:00:51;1012.918728649223;;;24.6732421875;63.40075526596144
61740;BME280;47645;45.288;12.038;2023-05-12T13:10:52;1012.8925363312671;;;23.975;65.78505477904199
61740;BME280;47645;45.288;12.038;2023-05-12T13:20:54;1012.8709438035901;;;23.9953125;61.29108858787603
61740;BME280;47645;45.288;12.038;2023-05-12T13:30:55;1013.036036791952;;;22.6802734375;64.40498605527009
61740;BME280;47645;45.288;12.038;2023-05-12T13:40:56;1013.1659781394748;;;24.83125;59.61096744528792
61740;BME280;47645;45.288;12.038;2023-05-12T13:50:57;1013.120795517835;;;26.2177734375;59.22968607513282
61740;BME280;47645;45.288;12.038;2023-05-12T14:00:59;1013.2431571450815;;;24.5712890625;54.65856598095891
61740;BME280;47645;45.288;12.038;2023-05-12T14:11:00;1013.3803439267774;;;25.7029296875;61.20770206736297
61740;BME280;47645;45.288;12.038;2023-05-12T14:21:01;1013.5172992344419;;;24.58671875;63.903134009595455
61740;BME280;47645;45.288;12.038;2023-05-12T14:31:02;1013.4998216618255;;;23.7099609375;68.77738492663055
61740;BME280;47645;45.288;12.038;2023-05-12T14:41:04;1013.5772386308397;;;23.48046875;69.32368970425942
61740;BME280;47645;45.288;12.038;2023-05-12T14:51:05;1013.5362676242454;;;22.4814453125;64.23360418218076
61740;BME280;47645;45.288;12.038;2023-05-12T15:01:07;1013.566136505583;;;22.62421875;74.802811995687
61740;BME280;47645;45.288;12.038;2023-05-12T15:11:07;1013.4931620726749;;;22.211328125;74.15338712986889
61740;BME280;47645;45.288;12.038;2023-05-12T15:21:09;1013.3957043463608;;;21.6607421875;76.31681061333566
61740;BME280;47645;45.288;12.038;2023-05-12T15:31:10;1013.4350861960936;;;21.3244140625;77.93459012029075
61740;BME280;47645;45.288;12.038;2023-05-12T15:41:11;1013.6627140944761;;;20.865625;81.3272876880535
61740;BME280;47645;45.288;12.038;2023-05-12T15:51:12;1014.0247762548175;;;20.0296875;79.90663042211487
61740;BME280;47645;45.288;12.038;2023-05-12T16:01:14;1014.2084302662793;;;19.3109375;76.08668307249643
61740;BME280;47645;45.288;12.038;2023-05-12T16:11:15;1014.2348164726251;;;19.0306640625;83.0953916748555
61740;BME280;47645;45.288;12.038;2023-05-12T16:21:16;1014.2054896145216;;;18.38828125;82.22587876933353
61740;BME280;47645;45.288;12.038;2023-05-12T16:31:19;1014.0586517256565;;;18.15390625;83.11614204658524
61740;BME280;47645;45.288;12.038;2023-05-12T16:41:18;1014.0190017216389;;;18.062109375;85.295864223023
61740;BME280;47645;45.288;12.038;2023-05-12T16:51:20;1014.0414828390597;;;16.4005859375;91.64112183603612
61740;BME280;47645;45.288;12.038;2023-05-12T17:01:21;1014.0601557065352;;;16.6400390625;95.13056174263735
61740;BME280;47645;45.288;12.038;2023-05-12T17:11:24;1014.0515699564068;;;16.5228515625;96.43813953971811
61740;BME280;47645;45.288;12.038;2023-05-12T17:21:23;1014.2995715683226;;;17.1345703125;93.64021630866405
61740;BME280;47645;45.288;12.038;2023-05-12T17:31:24;1014.5015897154805;;;17.205859375;93.30674718727337
61740;BME280;47645;45.288;12.038;2023-05-12T17:41:26;1014.7271708190125;;;16.874609375;94.64462264750674
61740;BME280;47645;45.288;12.038;2023-05-12T17:51:26;1014.7634244658183;;;16.6095703125;96.1569225324645
61740;BME280;47645;45.288;12.038;2023-05-12T18:01:27;1014.7873319720442;;;16.6197265625;96.09664691868052
61740;BME280;47645;45.288;12.038;2023-05-12T18:11:28;1014.8363902797105;;;16.3291015625;97.57156521091888
61740;BME280;47645;45.288;12.038;2023-05-12T18:21:29;1014.837346290574;;;16.2375;98.10666788436056
61740;BME280;47645;45.288;12.038;2023-05-12T18:31:30;1014.7866653894313;;;15.921484375;99.24233869601213
61740;BME280;47645;45.288;12.038;2023-05-12T18:41:32;1014.7639716151917;;;15.4421875;99.80668295865357
61740;BME280;47645;45.288;12.038;2023-05-12T18:51:32;1014.7344856120784;;;14.580859375;100
61740;BME280;47645;45.288;12.038;2023-05-12T19:01:33;1014.7927980059321;;;15.1619140625;100
61740;BME280;47645;45.288;12.038;2023-05-12T19:11:34;1014.9685933476206;;;14.1068359375;100
61740;BME280;47645;45.288;12.038;2023-05-12T19:21:35;1015.048563395683;;;13.8724609375;100
61740;BME280;47645;45.288;12.038;2023-05-12T19:31:36;1015.1364436275456;;;13.91328125;100
61740;BME280;47645;45.288;12.038;2023-05-12T19:41:38;1015.2749685844205;;;13.81640625;100
61740;BME280;47645;45.288;12.038;2023-05-12T19:51:38;1015.493149281637;;;14.38203125;100
61740;BME280;47645;45.288;12.038;2023-05-12T20:01:40;1015.7232281885181;;;14.698046875;100
61740;BME280;47645;45.288;12.038;2023-05-12T20:11:40;1015.838568382286;;;14.249609375;100
61740;BME280;47645;45.288;12.038;2023-05-12T20:21:41;1015.8206642827546;;;14.0763671875;100
61740;BME280;47645;45.288;12.038;2023-05-12T20:31:42;1015.8086315976807;;;13.8876953125;100
61740;BME280;47645;45.288;12.038;2023-05-12T20:41:45;1015.940767521946;;;14.0865234375;100
61740;BME280;47645;45.288;12.038;2023-05-12T20:51:46;1015.895613778592;;;14.05078125;100
61740;BME280;47645;45.288;12.038;2023-05-12T21:01:45;1015.8444674654916;;;14.38203125;100
61740;BME280;47645;45.288;12.038;2023-05-12T21:11:46;1015.9197103134994;;;14.0203125;100
61740;BME280;47645;45.288;12.038;2023-05-12T21:21:48;1015.9168384377108;;;14.3923828125;100
61740;BME280;47645;45.288;12.038;2023-05-12T21:31:49;1015.913450004219;;;14.3158203125;100
61740;BME280;47645;45.288;12.038;2023-05-12T21:41:50;1015.9462643783343;;;14.040625;100
61740;BME280;47645;45.288;12.038;2023-05-12T21:51:53;1015.9224629163078;;;14.2138671875;100
61740;BME280;47645;45.288;12.038;2023-05-12T22:01:50;1015.9949542109732;;;14.015234375;100
61740;BME280;47645;45.288;12.038;2023-05-12T22:11:53;1016.0614767640559;;;13.734765625;100
61740;BME280;47645;45.288;12.038;2023-05-12T22:21:54;1016.1228026718454;;;14.015234375;100
61740;BME280;47645;45.288;12.038;2023-05-12T22:31:54;1016.1576771950126;;;14.229296875;100
61740;BME280;47645;45.288;12.038;2023-05-12T22:41:57;1016.2277122125593;;;14.055859375;100
61740;BME280;47645;45.288;12.038;2023-05-12T22:51:55;1016.2290454313436;;;14.1375;100
61740;BME280;47645;45.288;12.038;2023-05-12T23:01:56;1016.0915895032988;;;14.0203125;100
61740;BME280;47645;45.288;12.038;2023-05-12T23:11:57;1016.1674820886209;;;13.8572265625;100
61740;BME280;47645;45.288;12.038;2023-05-12T23:21:58;1016.155115824036;;;13.7705078125;100
61740;BME280;47645;45.288;12.038;2023-05-12T23:31:59;1016.1516031157137;;;13.7908203125;100
61740;BME280;47645;45.288;12.038;2023-05-12T23:42:01;1016.0055123685202;;;13.6837890625;100
61740;BME280;47645;45.288;12.038;2023-05-12T23:52:01;1015.9703594387419;;;13.3423828125;100
